sensor_id;sensor_type;location;lat;lon;timestamp;P1;durP1;ratioP1;P2;durP2;ratioP2
39044;SDS011;52192;52.002;5.956;2023-07-24T00:00:14;1.08;;;0.68;;
39044;SDS011;52192;52.002;5.956;2023-07-24T00:02:40;1.33;;;0.43;;
39044;SDS011;52192;52.002;5.956;2023-07-24T00:05:06;0.40;;;0.40;;
39044;SDS011;52192;52.002;5.956;2023-07-24T00:07:32;0.77;;;0.70;;
39044;SDS011;52192;52.002;5.956;2023-07-24T00:09:57;0.47;;;0.40;;
39044;SDS011;52192;52.002;5.956;2023-07-24T00:12:23;1.63;;;0.90;;
39044;SDS011;52192;52.002;5.956;2023-07-24T00:14:49;0.60;;;0.60;;
39044;SDS011;52192;52.002;5.956;2023-07-24T00:17:16;1.20;;;0.88;;
39044;SDS011;52192;52.002;5.956;2023-07-24T00:19:42;0.75;;;0.47;;
39044;SDS011;52192;52.002;5.956;2023-07-24T00:22:08;0.45;;;0.45;;
39044;SDS011;52192;52.002;5.956;2023-07-24T00:24:33;0.68;;;0.50;;
39044;SDS011;52192;52.002;5.956;2023-07-24T00:26:59;0.60;;;0.60;;
39044;SDS011;52192;52.002;5.956;2023-07-24T00:29:25;0.40;;;0.40;;
39044;SDS011;52192;52.002;5.956;2023-07-24T00:31:50;0.50;;;0.50;;
39044;SDS011;52192;52.002;5.956;2023-07-24T00:34:16;0.30;;;0.30;;
39044;SDS011;52192;52.002;5.956;2023-07-24T00:36:42;0.65;;;0.65;;
39044;SDS011;52192;52.002;5.956;2023-07-24T00:39:07;0.52;;;0.50;;
39044;SDS011;52192;52.002;5.956;2023-07-24T00:41:33;0.77;;;0.60;;
39044;SDS011;52192;52.002;5.956;2023-07-24T00:43:58;1.10;;;0.60;;
39044;SDS011;52192;52.002;5.956;2023-07-24T00:46:25;0.68;;;0.57;;
39044;SDS011;52192;52.002;5.956;2023-07-24T00:48:51;0.90;;;0.73;;
39044;SDS011;52192;52.002;5.956;2023-07-24T00:51:19;0.57;;;0.57;;
39044;SDS011;52192;52.002;5.956;2023-07-24T00:53:44;1.80;;;0.68;;
39044;SDS011;52192;52.002;5.956;2023-07-24T00:56:12;2.05;;;0.45;;
39044;SDS011;52192;52.002;5.956;2023-07-24T00:58:38;0.65;;;0.50;;
39044;SDS011;52192;52.002;5.956;2023-07-24T01:01:04;1.05;;;0.50;;
39044;SDS011;52192;52.002;5.956;2023-07-24T01:03:34;0.40;;;0.40;;
39044;SDS011;52192;52.002;5.956;2023-07-24T01:06:03;1.58;;;0.68;;
39044;SDS011;52192;52.002;5.956;2023-07-24T01:08:29;0.85;;;0.52;;
39044;SDS011;52192;52.002;5.956;2023-07-24T01:11:00;0.30;;;0.30;;
39044;SDS011;52192;52.002;5.956;2023-07-24T01:13:32;0.43;;;0.40;;
39044;SDS011;52192;52.002;5.956;2023-07-24T01:16:05;0.47;;;0.47;;
39044;SDS011;52192;52.002;5.956;2023-07-24T01:18:43;0.60;;;0.57;;
39044;SDS011;52192;52.002;5.956;2023-07-24T01:21:11;0.60;;;0.60;;
39044;SDS011;52192;52.002;5.956;2023-07-24T01:23:44;0.88;;;0.75;;
39044;SDS011;52192;52.002;5.956;2023-07-24T01:26:11;0.55;;;0.50;;
39044;SDS011;52192;52.002;5.956;2023-07-24T01:28:38;0.50;;;0.40;;
39044;SDS011;52192;52.002;5.956;2023-07-24T01:31:04;0.60;;;0.50;;
39044;SDS011;52192;52.002;5.956;2023-07-24T01:33:30;1.50;;;1.05;;
39044;SDS011;52192;52.002;5.956;2023-07-24T01:35:59;0.50;;;0.47;;
39044;SDS011;52192;52.002;5.956;2023-07-24T01:38:27;0.75;;;0.60;;
39044;SDS011;52192;52.002;5.956;2023-07-24T01:40:53;1.15;;;0.63;;
39044;SDS011;52192;52.002;5.956;2023-07-24T01:43:19;0.65;;;0.65;;
39044;SDS011;52192;52.002;5.956;2023-07-24T01:45:45;1.10;;;0.50;;
39044;SDS011;52192;52.002;5.956;2023-07-24T01:48:10;1.23;;;1.13;;
39044;SDS011;52192;52.002;5.956;2023-07-24T01:50:36;1.92;;;1.25;;
39044;SDS011;52192;52.002;5.956;2023-07-24T01:53:02;2.15;;;0.70;;
39044;SDS011;52192;52.002;5.956;2023-07-24T01:55:28;0.98;;;0.80;;
39044;SDS011;52192;52.002;5.956;2023-07-24T01:57:53;0.75;;;0.75;;
39044;SDS011;52192;52.002;5.956;2023-07-24T02:00:19;1.00;;;0.70;;
39044;SDS011;52192;52.002;5.956;2023-07-24T02:02:44;0.98;;;0.77;;
39044;SDS011;52192;52.002;5.956;2023-07-24T02:05:10;2.17;;;1.15;;
39044;SDS011;52192;52.002;5.956;2023-07-24T02:07:36;0.82;;;0.70;;
39044;SDS011;52192;52.002;5.956;2023-07-24T02:10:01;1.05;;;0.80;;
39044;SDS011;52192;52.002;5.956;2023-07-24T02:12:27;0.60;;;0.60;;
39044;SDS011;52192;52.002;5.956;2023-07-24T02:14:53;1.40;;;1.02;;
39044;SDS011;52192;52.002;5.956;2023-07-24T02:17:19;1.73;;;0.98;;
39044;SDS011;52192;52.002;5.956;2023-07-24T02:19:45;0.60;;;0.60;;
39044;SDS011;52192;52.002;5.956;2023-07-24T02:22:11;1.45;;;1.00;;
39044;SDS011;52192;52.002;5.956;2023-07-24T02:24:37;1.38;;;0.70;;
39044;SDS011;52192;52.002;5.956;2023-07-24T02:27:04;1.15;;;0.95;;
39044;SDS011;52192;52.002;5.956;2023-07-24T02:29:30;0.82;;;0.65;;
39044;SDS011;52192;52.002;5.956;2023-07-24T02:31:56;1.55;;;1.20;;
39044;SDS011;52192;52.002;5.956;2023-07-24T02:34:23;3.13;;;0.82;;
39044;SDS011;52192;52.002;5.956;2023-07-24T02:36:51;2.65;;;1.15;;
39044;SDS011;52192;52.002;5.956;2023-07-24T02:39:18;0.95;;;0.82;;
39044;SDS011;52192;52.002;5.956;2023-07-24T02:41:44;1.52;;;1.00;;
39044;SDS011;52192;52.002;5.956;2023-07-24T02:44:10;1.08;;;0.68;;
39044;SDS011;52192;52.002;5.956;2023-07-24T02:46:37;0.60;;;0.60;;
39044;SDS011;52192;52.002;5.956;2023-07-24T02:49:02;1.10;;;0.95;;
39044;SDS011;52192;52.002;5.956;2023-07-24T02:51:28;3.63;;;1.20;;
39044;SDS011;52192;52.002;5.956;2023-07-24T02:53:54;0.77;;;0.77;;
39044;SDS011;52192;52.002;5.956;2023-07-24T02:56:20;1.23;;;0.70;;
39044;SDS011;52192;52.002;5.956;2023-07-24T02:58:46;0.70;;;0.60;;
39044;SDS011;52192;52.002;5.956;2023-07-24T03:01:11;1.35;;;0.80;;
39044;SDS011;52192;52.002;5.956;2023-07-24T03:03:39;0.70;;;0.70;;
39044;SDS011;52192;52.002;5.956;2023-07-24T03:06:05;0.63;;;0.60;;
39044;SDS011;52192;52.002;5.956;2023-07-24T03:08:31;0.80;;;0.70;;
39044;SDS011;52192;52.002;5.956;2023-07-24T03:10:57;1.15;;;0.63;;
39044;SDS011;52192;52.002;5.956;2023-07-24T03:13:23;0.85;;;0.70;;
39044;SDS011;52192;52.002;5.956;2023-07-24T03:15:53;0.70;;;0.60;;
39044;SDS011;52192;52.002;5.956;2023-07-24T03:18:20;1.27;;;0.90;;
39044;SDS011;52192;52.002;5.956;2023-07-24T03:20:46;1.33;;;1.00;;
39044;SDS011;52192;52.002;5.956;2023-07-24T03:23:11;0.77;;;0.63;;
39044;SDS011;52192;52.002;5.956;2023-07-24T03:25:37;1.00;;;0.90;;
39044;SDS011;52192;52.002;5.956;2023-07-24T03:28:03;0.70;;;0.70;;
39044;SDS011;52192;52.002;5.956;2023-07-24T03:30:29;1.38;;;0.98;;
39044;SDS011;52192;52.002;5.956;2023-07-24T03:32:54;1.50;;;1.00;;
39044;SDS011;52192;52.002;5.956;2023-07-24T03:35:20;1.15;;;0.90;;
39044;SDS011;52192;52.002;5.956;2023-07-24T03:37:46;1.25;;;0.80;;
39044;SDS011;52192;52.002;5.956;2023-07-24T03:40:11;1.33;;;1.00;;
39044;SDS011;52192;52.002;5.956;2023-07-24T03:42:37;1.33;;;1.20;;
39044;SDS011;52192;52.002;5.956;2023-07-24T03:45:03;2.33;;;1.50;;
39044;SDS011;52192;52.002;5.956;2023-07-24T03:47:29;1.75;;;1.02;;
39044;SDS011;52192;52.002;5.956;2023-07-24T03:49:55;1.23;;;1.02;;
39044;SDS011;52192;52.002;5.956;2023-07-24T03:52:20;3.20;;;1.10;;
39044;SDS011;52192;52.002;5.956;2023-07-24T03:54:46;1.85;;;1.10;;
39044;SDS011;52192;52.002;5.956;2023-07-24T03:57:12;1.77;;;1.23;;
39044;SDS011;52192;52.002;5.956;2023-07-24T03:59:41;1.55;;;1.00;;
39044;SDS011;52192;52.002;5.956;2023-07-24T04:02:12;1.52;;;1.27;;
39044;SDS011;52192;52.002;5.956;2023-07-24T04:04:38;1.42;;;1.10;;
39044;SDS011;52192;52.002;5.956;2023-07-24T04:07:04;1.80;;;1.30;;
39044;SDS011;52192;52.002;5.956;2023-07-24T04:09:30;1.25;;;0.77;;
39044;SDS011;52192;52.002;5.956;2023-07-24T04:11:56;2.58;;;1.02;;
39044;SDS011;52192;52.002;5.956;2023-07-24T04:14:21;1.75;;;1.00;;
39044;SDS011;52192;52.002;5.956;2023-07-24T04:16:47;1.08;;;0.98;;
39044;SDS011;52192;52.002;5.956;2023-07-24T04:19:13;1.60;;;1.10;;
39044;SDS011;52192;52.002;5.956;2023-07-24T04:21:38;2.15;;;1.27;;
39044;SDS011;52192;52.002;5.956;2023-07-24T04:24:04;1.13;;;0.90;;
39044;SDS011;52192;52.002;5.956;2023-07-24T04:26:30;1.58;;;1.15;;
39044;SDS011;52192;52.002;5.956;2023-07-24T04:28:56;1.10;;;1.00;;
39044;SDS011;52192;52.002;5.956;2023-07-24T04:31:21;0.93;;;0.63;;
39044;SDS011;52192;52.002;5.956;2023-07-24T04:33:51;1.30;;;1.17;;
39044;SDS011;52192;52.002;5.956;2023-07-24T04:36:19;1.33;;;0.80;;
39044;SDS011;52192;52.002;5.956;2023-07-24T04:38:45;1.50;;;1.05;;
39044;SDS011;52192;52.002;5.956;2023-07-24T04:41:12;1.27;;;0.90;;
39044;SDS011;52192;52.002;5.956;2023-07-24T04:43:37;2.10;;;1.00;;
39044;SDS011;52192;52.002;5.956;2023-07-24T04:46:03;1.20;;;1.10;;
39044;SDS011;52192;52.002;5.956;2023-07-24T04:48:29;1.50;;;1.13;;
39044;SDS011;52192;52.002;5.956;2023-07-24T04:50:55;1.55;;;1.08;;
39044;SDS011;52192;52.002;5.956;2023-07-24T04:53:21;2.28;;;1.50;;
39044;SDS011;52192;52.002;5.956;2023-07-24T04:55:47;2.20;;;1.30;;
39044;SDS011;52192;52.002;5.956;2023-07-24T04:58:12;0.80;;;0.80;;
39044;SDS011;52192;52.002;5.956;2023-07-24T05:00:38;1.73;;;1.25;;
39044;SDS011;52192;52.002;5.956;2023-07-24T05:03:04;2.90;;;0.90;;
39044;SDS011;52192;52.002;5.956;2023-07-24T05:05:30;1.48;;;1.02;;
39044;SDS011;52192;52.002;5.956;2023-07-24T05:07:56;1.58;;;1.05;;
39044;SDS011;52192;52.002;5.956;2023-07-24T05:10:22;1.92;;;1.42;;
39044;SDS011;52192;52.002;5.956;2023-07-24T05:12:48;1.48;;;1.23;;
39044;SDS011;52192;52.002;5.956;2023-07-24T05:15:13;2.38;;;1.17;;
39044;SDS011;52192;52.002;5.956;2023-07-24T05:17:42;1.65;;;1.13;;
39044;SDS011;52192;52.002;5.956;2023-07-24T05:20:08;1.35;;;1.08;;
39044;SDS011;52192;52.002;5.956;2023-07-24T05:22:34;1.30;;;1.20;;
39044;SDS011;52192;52.002;5.956;2023-07-24T05:25:00;1.10;;;0.90;;
39044;SDS011;52192;52.002;5.956;2023-07-24T05:27:26;1.02;;;0.90;;
39044;SDS011;52192;52.002;5.956;2023-07-24T05:29:51;1.25;;;1.10;;
39044;SDS011;52192;52.002;5.956;2023-07-24T05:32:17;2.00;;;1.33;;
39044;SDS011;52192;52.002;5.956;2023-07-24T05:34:43;1.80;;;1.40;;
39044;SDS011;52192;52.002;5.956;2023-07-24T05:37:08;1.67;;;1.25;;
39044;SDS011;52192;52.002;5.956;2023-07-24T05:39:34;1.38;;;1.27;;
39044;SDS011;52192;52.002;5.956;2023-07-24T05:42:00;1.95;;;1.05;;
39044;SDS011;52192;52.002;5.956;2023-07-24T05:44:26;1.92;;;1.48;;
39044;SDS011;52192;52.002;5.956;2023-07-24T05:46:51;1.67;;;1.40;;
39044;SDS011;52192;52.002;5.956;2023-07-24T05:49:17;2.47;;;1.27;;
39044;SDS011;52192;52.002;5.956;2023-07-24T05:51:43;1.65;;;1.20;;
39044;SDS011;52192;52.002;5.956;2023-07-24T05:54:08;1.98;;;1.77;;
39044;SDS011;52192;52.002;5.956;2023-07-24T05:56:34;1.65;;;1.27;;
39044;SDS011;52192;52.002;5.956;2023-07-24T05:59:00;2.67;;;2.05;;
39044;SDS011;52192;52.002;5.956;2023-07-24T06:01:25;2.67;;;1.50;;
39044;SDS011;52192;52.002;5.956;2023-07-24T06:03:51;2.47;;;1.73;;
39044;SDS011;52192;52.002;5.956;2023-07-24T06:06:17;2.95;;;1.50;;
39044;SDS011;52192;52.002;5.956;2023-07-24T06:08:42;4.55;;;2.15;;
39044;SDS011;52192;52.002;5.956;2023-07-24T06:11:08;3.15;;;2.15;;
39044;SDS011;52192;52.002;5.956;2023-07-24T06:13:35;6.07;;;1.98;;
39044;SDS011;52192;52.002;5.956;2023-07-24T06:16:01;1.65;;;1.40;;
39044;SDS011;52192;52.002;5.956;2023-07-24T06:18:26;2.25;;;1.38;;
39044;SDS011;52192;52.002;5.956;2023-07-24T06:20:52;1.73;;;1.38;;
39044;SDS011;52192;52.002;5.956;2023-07-24T06:23:19;2.60;;;1.83;;
39044;SDS011;52192;52.002;5.956;2023-07-24T06:25:44;2.05;;;1.48;;
39044;SDS011;52192;52.002;5.956;2023-07-24T06:28:10;1.88;;;1.50;;
39044;SDS011;52192;52.002;5.956;2023-07-24T06:30:36;4.07;;;1.55;;
39044;SDS011;52192;52.002;5.956;2023-07-24T06:33:03;3.72;;;1.98;;
39044;SDS011;52192;52.002;5.956;2023-07-24T06:35:29;2.20;;;1.42;;
39044;SDS011;52192;52.002;5.956;2023-07-24T06:37:55;2.38;;;1.35;;
39044;SDS011;52192;52.002;5.956;2023-07-24T06:40:20;3.28;;;2.22;;
39044;SDS011;52192;52.002;5.956;2023-07-24T06:42:46;2.47;;;1.92;;
39044;SDS011;52192;52.002;5.956;2023-07-24T06:45:12;3.90;;;1.95;;
39044;SDS011;52192;52.002;5.956;2023-07-24T06:47:38;2.70;;;1.63;;
39044;SDS011;52192;52.002;5.956;2023-07-24T06:50:03;5.57;;;1.92;;
39044;SDS011;52192;52.002;5.956;2023-07-24T06:52:30;3.42;;;2.03;;
39044;SDS011;52192;52.002;5.956;2023-07-24T06:54:59;2.28;;;1.40;;
39044;SDS011;52192;52.002;5.956;2023-07-24T06:57:24;2.42;;;1.30;;
39044;SDS011;52192;52.002;5.956;2023-07-24T06:59:50;2.65;;;2.00;;
39044;SDS011;52192;52.002;5.956;2023-07-24T07:02:16;1.80;;;1.58;;
39044;SDS011;52192;52.002;5.956;2023-07-24T07:04:42;5.05;;;1.40;;
39044;SDS011;52192;52.002;5.956;2023-07-24T07:07:08;3.58;;;2.10;;
39044;SDS011;52192;52.002;5.956;2023-07-24T07:09:33;3.17;;;2.25;;
39044;SDS011;52192;52.002;5.956;2023-07-24T07:11:59;2.03;;;1.80;;
39044;SDS011;52192;52.002;5.956;2023-07-24T07:14:25;2.92;;;2.22;;
39044;SDS011;52192;52.002;5.956;2023-07-24T07:16:50;1.73;;;1.25;;
39044;SDS011;52192;52.002;5.956;2023-07-24T07:19:16;4.63;;;2.58;;
39044;SDS011;52192;52.002;5.956;2023-07-24T07:21:41;3.05;;;2.00;;
39044;SDS011;52192;52.002;5.956;2023-07-24T07:24:07;3.05;;;2.45;;
39044;SDS011;52192;52.002;5.956;2023-07-24T07:26:33;3.72;;;2.67;;
39044;SDS011;52192;52.002;5.956;2023-07-24T07:28:58;3.55;;;2.70;;
39044;SDS011;52192;52.002;5.956;2023-07-24T07:31:24;3.85;;;2.25;;
39044;SDS011;52192;52.002;5.956;2023-07-24T07:33:50;3.33;;;2.50;;
39044;SDS011;52192;52.002;5.956;2023-07-24T07:36:16;2.38;;;1.95;;
39044;SDS011;52192;52.002;5.956;2023-07-24T07:38:42;3.63;;;2.65;;
39044;SDS011;52192;52.002;5.956;2023-07-24T07:41:08;6.15;;;2.30;;
39044;SDS011;52192;52.002;5.956;2023-07-24T07:43:34;3.05;;;2.25;;
39044;SDS011;52192;52.002;5.956;2023-07-24T07:46:01;3.00;;;1.90;;
39044;SDS011;52192;52.002;5.956;2023-07-24T07:48:27;3.35;;;2.05;;
39044;SDS011;52192;52.002;5.956;2023-07-24T07:50:53;3.97;;;2.70;;
39044;SDS011;52192;52.002;5.956;2023-07-24T07:53:19;3.05;;;2.58;;
39044;SDS011;52192;52.002;5.956;2023-07-24T07:55:45;4.38;;;2.42;;
39044;SDS011;52192;52.002;5.956;2023-07-24T07:58:10;2.80;;;1.83;;
39044;SDS011;52192;52.002;5.956;2023-07-24T08:00:36;4.68;;;2.75;;
39044;SDS011;52192;52.002;5.956;2023-07-24T08:03:04;3.53;;;2.15;;
39044;SDS011;52192;52.002;5.956;2023-07-24T08:05:30;5.38;;;3.17;;
39044;SDS011;52192;52.002;5.956;2023-07-24T08:07:57;2.67;;;1.90;;
39044;SDS011;52192;52.002;5.956;2023-07-24T08:10:22;4.32;;;2.80;;
39044;SDS011;52192;52.002;5.956;2023-07-24T08:12:48;4.63;;;2.45;;
39044;SDS011;52192;52.002;5.956;2023-07-24T08:15:14;6.93;;;3.40;;
39044;SDS011;52192;52.002;5.956;2023-07-24T08:17:40;4.60;;;3.15;;
39044;SDS011;52192;52.002;5.956;2023-07-24T08:20:06;5.68;;;2.80;;
39044;SDS011;52192;52.002;5.956;2023-07-24T08:22:32;8.15;;;3.60;;
39044;SDS011;52192;52.002;5.956;2023-07-24T08:24:57;4.18;;;2.83;;
39044;SDS011;52192;52.002;5.956;2023-07-24T08:27:23;4.38;;;2.10;;
39044;SDS011;52192;52.002;5.956;2023-07-24T08:29:52;3.58;;;2.03;;
39044;SDS011;52192;52.002;5.956;2023-07-24T08:32:18;4.50;;;2.88;;
39044;SDS011;52192;52.002;5.956;2023-07-24T08:34:44;5.57;;;2.75;;
39044;SDS011;52192;52.002;5.956;2023-07-24T08:37:11;5.50;;;2.97;;
39044;SDS011;52192;52.002;5.956;2023-07-24T08:39:37;3.50;;;2.55;;
39044;SDS011;52192;52.002;5.956;2023-07-24T08:42:10;3.80;;;2.33;;
39044;SDS011;52192;52.002;5.956;2023-07-24T08:44:37;4.13;;;2.42;;
39044;SDS011;52192;52.002;5.956;2023-07-24T08:47:03;4.40;;;2.25;;
39044;SDS011;52192;52.002;5.956;2023-07-24T08:49:31;3.55;;;2.28;;
39044;SDS011;52192;52.002;5.956;2023-07-24T08:51:58;3.38;;;2.38;;
39044;SDS011;52192;52.002;5.956;2023-07-24T08:54:24;6.38;;;3.75;;
39044;SDS011;52192;52.002;5.956;2023-07-24T08:56:52;3.22;;;2.60;;
39044;SDS011;52192;52.002;5.956;2023-07-24T08:59:17;4.00;;;3.00;;
39044;SDS011;52192;52.002;5.956;2023-07-24T09:01:43;2.80;;;2.00;;
39044;SDS011;52192;52.002;5.956;2023-07-24T09:04:09;3.53;;;2.22;;
39044;SDS011;52192;52.002;5.956;2023-07-24T09:06:35;3.63;;;2.42;;
39044;SDS011;52192;52.002;5.956;2023-07-24T09:09:02;3.58;;;2.22;;
39044;SDS011;52192;52.002;5.956;2023-07-24T09:11:28;3.10;;;2.15;;
39044;SDS011;52192;52.002;5.956;2023-07-24T09:13:53;3.80;;;2.45;;
39044;SDS011;52192;52.002;5.956;2023-07-24T09:16:23;3.47;;;2.28;;
39044;SDS011;52192;52.002;5.956;2023-07-24T09:18:50;4.63;;;2.92;;
39044;SDS011;52192;52.002;5.956;2023-07-24T09:21:31;3.15;;;2.08;;
39044;SDS011;52192;52.002;5.956;2023-07-24T09:23:57;2.72;;;1.73;;
39044;SDS011;52192;52.002;5.956;2023-07-24T09:26:34;5.25;;;2.65;;
39044;SDS011;52192;52.002;5.956;2023-07-24T09:29:10;3.05;;;1.95;;
39044;SDS011;52192;52.002;5.956;2023-07-24T09:31:36;3.10;;;2.13;;
39044;SDS011;52192;52.002;5.956;2023-07-24T09:34:02;2.22;;;1.70;;
39044;SDS011;52192;52.002;5.956;2023-07-24T09:36:36;2.90;;;2.40;;
39044;SDS011;52192;52.002;5.956;2023-07-24T09:39:03;4.40;;;1.98;;
39044;SDS011;52192;52.002;5.956;2023-07-24T09:41:31;3.42;;;2.10;;
39044;SDS011;52192;52.002;5.956;2023-07-24T09:43:59;2.58;;;1.92;;
39044;SDS011;52192;52.002;5.956;2023-07-24T09:46:25;1.92;;;1.80;;
39044;SDS011;52192;52.002;5.956;2023-07-24T09:48:53;4.90;;;2.47;;
39044;SDS011;52192;52.002;5.956;2023-07-24T09:51:20;3.83;;;2.17;;
39044;SDS011;52192;52.002;5.956;2023-07-24T09:53:53;3.70;;;2.38;;
39044;SDS011;52192;52.002;5.956;2023-07-24T09:56:23;2.58;;;2.05;;
39044;SDS011;52192;52.002;5.956;2023-07-24T09:58:50;2.35;;;1.65;;
39044;SDS011;52192;52.002;5.956;2023-07-24T10:01:20;2.42;;;1.65;;
39044;SDS011;52192;52.002;5.956;2023-07-24T10:03:46;3.70;;;2.13;;
39044;SDS011;52192;52.002;5.956;2023-07-24T10:06:14;3.58;;;1.85;;
39044;SDS011;52192;52.002;5.956;2023-07-24T10:08:41;7.15;;;2.70;;
39044;SDS011;52192;52.002;5.956;2023-07-24T10:11:08;1.55;;;1.45;;
39044;SDS011;52192;52.002;5.956;2023-07-24T10:13:36;3.05;;;1.55;;
39044;SDS011;52192;52.002;5.956;2023-07-24T10:16:03;1.75;;;1.23;;
39044;SDS011;52192;52.002;5.956;2023-07-24T10:18:32;2.03;;;1.70;;
39044;SDS011;52192;52.002;5.956;2023-07-24T10:26:06;3.13;;;2.13;;
39044;SDS011;52192;52.002;5.956;2023-07-24T10:28:36;2.00;;;1.65;;
39044;SDS011;52192;52.002;5.956;2023-07-24T10:31:06;9.77;;;2.70;;
39044;SDS011;52192;52.002;5.956;2023-07-24T10:33:53;2.53;;;2.13;;
39044;SDS011;52192;52.002;5.956;2023-07-24T10:36:21;2.65;;;1.75;;
39044;SDS011;52192;52.002;5.956;2023-07-24T10:38:52;2.05;;;1.83;;
39044;SDS011;52192;52.002;5.956;2023-07-24T10:41:21;6.65;;;2.38;;
39044;SDS011;52192;52.002;5.956;2023-07-24T10:43:48;3.03;;;1.80;;
39044;SDS011;52192;52.002;5.956;2023-07-24T10:46:16;2.03;;;1.48;;
39044;SDS011;52192;52.002;5.956;2023-07-24T10:48:48;2.40;;;1.67;;
39044;SDS011;52192;52.002;5.956;2023-07-24T10:51:15;4.80;;;1.85;;
39044;SDS011;52192;52.002;5.956;2023-07-24T10:53:48;2.58;;;1.67;;
39044;SDS011;52192;52.002;5.956;2023-07-24T10:56:14;4.45;;;2.45;;
39044;SDS011;52192;52.002;5.956;2023-07-24T10:58:41;2.75;;;1.58;;
39044;SDS011;52192;52.002;5.956;2023-07-24T11:01:07;1.98;;;1.77;;
39044;SDS011;52192;52.002;5.956;2023-07-24T11:03:36;2.85;;;2.25;;
39044;SDS011;52192;52.002;5.956;2023-07-24T11:06:03;2.13;;;1.75;;
39044;SDS011;52192;52.002;5.956;2023-07-24T11:08:29;5.50;;;2.22;;
39044;SDS011;52192;52.002;5.956;2023-07-24T11:10:56;2.25;;;2.03;;
39044;SDS011;52192;52.002;5.956;2023-07-24T11:13:24;3.08;;;2.17;;
39044;SDS011;52192;52.002;5.956;2023-07-24T11:15:52;1.63;;;1.25;;
39044;SDS011;52192;52.002;5.956;2023-07-24T11:18:18;7.60;;;2.65;;
39044;SDS011;52192;52.002;5.956;2023-07-24T11:20:52;5.30;;;2.50;;
39044;SDS011;52192;52.002;5.956;2023-07-24T11:23:19;2.28;;;1.90;;
39044;SDS011;52192;52.002;5.956;2023-07-24T11:25:45;2.30;;;2.10;;
39044;SDS011;52192;52.002;5.956;2023-07-24T11:28:12;2.92;;;2.20;;
39044;SDS011;52192;52.002;5.956;2023-07-24T11:30:39;3.50;;;2.13;;
39044;SDS011;52192;52.002;5.956;2023-07-24T11:33:07;2.67;;;1.80;;
39044;SDS011;52192;52.002;5.956;2023-07-24T11:35:35;2.20;;;1.73;;
39044;SDS011;52192;52.002;5.956;2023-07-24T11:38:03;3.13;;;1.77;;
39044;SDS011;52192;52.002;5.956;2023-07-24T11:40:33;2.95;;;2.22;;
39044;SDS011;52192;52.002;5.956;2023-07-24T11:43:02;2.58;;;2.33;;
39044;SDS011;52192;52.002;5.956;2023-07-24T11:45:28;1.83;;;1.50;;
39044;SDS011;52192;52.002;5.956;2023-07-24T11:48:09;2.15;;;1.77;;
39044;SDS011;52192;52.002;5.956;2023-07-24T11:50:45;2.58;;;1.98;;
39044;SDS011;52192;52.002;5.956;2023-07-24T11:53:22;2.22;;;1.60;;
39044;SDS011;52192;52.002;5.956;2023-07-24T11:55:50;2.78;;;2.00;;
39044;SDS011;52192;52.002;5.956;2023-07-24T11:58:17;1.77;;;1.48;;
39044;SDS011;52192;52.002;5.956;2023-07-24T12:00:44;2.65;;;1.75;;
39044;SDS011;52192;52.002;5.956;2023-07-24T12:03:11;2.40;;;1.83;;
39044;SDS011;52192;52.002;5.956;2023-07-24T12:05:41;2.40;;;1.85;;
39044;SDS011;52192;52.002;5.956;2023-07-24T12:08:07;2.83;;;1.95;;
39044;SDS011;52192;52.002;5.956;2023-07-24T12:10:35;2.20;;;1.83;;
39044;SDS011;52192;52.002;5.956;2023-07-24T12:13:03;2.78;;;2.13;;
39044;SDS011;52192;52.002;5.956;2023-07-24T12:15:28;3.25;;;2.15;;
39044;SDS011;52192;52.002;5.956;2023-07-24T12:17:54;3.78;;;2.47;;
39044;SDS011;52192;52.002;5.956;2023-07-24T12:20:21;2.42;;;1.77;;
39044;SDS011;52192;52.002;5.956;2023-07-24T12:22:48;1.98;;;1.38;;
39044;SDS011;52192;52.002;5.956;2023-07-24T12:25:14;3.10;;;2.33;;
39044;SDS011;52192;52.002;5.956;2023-07-24T12:27:40;2.83;;;1.85;;
39044;SDS011;52192;52.002;5.956;2023-07-24T12:30:07;2.65;;;2.10;;
39044;SDS011;52192;52.002;5.956;2023-07-24T12:32:33;6.43;;;1.92;;
39044;SDS011;52192;52.002;5.956;2023-07-24T12:34:59;2.38;;;1.30;;
39044;SDS011;52192;52.002;5.956;2023-07-24T12:37:25;2.60;;;1.52;;
39044;SDS011;52192;52.002;5.956;2023-07-24T12:39:51;3.20;;;1.85;;
39044;SDS011;52192;52.002;5.956;2023-07-24T12:42:17;3.47;;;1.90;;
39044;SDS011;52192;52.002;5.956;2023-07-24T12:44:43;2.03;;;1.40;;
39044;SDS011;52192;52.002;5.956;2023-07-24T12:47:10;2.53;;;1.63;;
39044;SDS011;52192;52.002;5.956;2023-07-24T12:49:37;5.40;;;2.15;;
39044;SDS011;52192;52.002;5.956;2023-07-24T12:52:03;3.70;;;1.70;;
39044;SDS011;52192;52.002;5.956;2023-07-24T12:54:29;3.33;;;1.83;;
39044;SDS011;52192;52.002;5.956;2023-07-24T12:56:54;2.10;;;1.90;;
39044;SDS011;52192;52.002;5.956;2023-07-24T12:59:20;2.65;;;1.80;;
39044;SDS011;52192;52.002;5.956;2023-07-24T13:01:46;4.45;;;2.05;;
39044;SDS011;52192;52.002;5.956;2023-07-24T13:04:12;1.88;;;1.50;;
39044;SDS011;52192;52.002;5.956;2023-07-24T13:06:37;5.57;;;1.58;;
39044;SDS011;52192;52.002;5.956;2023-07-24T13:09:03;3.03;;;1.50;;
39044;SDS011;52192;52.002;5.956;2023-07-24T13:11:30;2.60;;;1.48;;
39044;SDS011;52192;52.002;5.956;2023-07-24T13:13:56;1.90;;;1.40;;
39044;SDS011;52192;52.002;5.956;2023-07-24T13:16:22;1.77;;;1.27;;
39044;SDS011;52192;52.002;5.956;2023-07-24T13:18:48;1.40;;;1.30;;
39044;SDS011;52192;52.002;5.956;2023-07-24T13:21:14;1.52;;;0.98;;
39044;SDS011;52192;52.002;5.956;2023-07-24T13:23:40;1.98;;;1.25;;
39044;SDS011;52192;52.002;5.956;2023-07-24T13:26:06;1.02;;;0.85;;
39044;SDS011;52192;52.002;5.956;2023-07-24T13:28:33;1.42;;;1.15;;
39044;SDS011;52192;52.002;5.956;2023-07-24T13:30:59;1.40;;;1.25;;
39044;SDS011;52192;52.002;5.956;2023-07-24T13:33:35;4.53;;;1.92;;
39044;SDS011;52192;52.002;5.956;2023-07-24T13:36:01;1.33;;;1.23;;
39044;SDS011;52192;52.002;5.956;2023-07-24T13:38:26;2.30;;;1.48;;
39044;SDS011;52192;52.002;5.956;2023-07-24T13:40:52;3.10;;;1.65;;
39044;SDS011;52192;52.002;5.956;2023-07-24T13:43:18;1.33;;;1.17;;
39044;SDS011;52192;52.002;5.956;2023-07-24T13:45:43;1.23;;;1.13;;
39044;SDS011;52192;52.002;5.956;2023-07-24T13:48:09;1.92;;;1.00;;
39044;SDS011;52192;52.002;5.956;2023-07-24T13:50:35;1.25;;;1.15;;
39044;SDS011;52192;52.002;5.956;2023-07-24T13:53:00;2.28;;;1.33;;
39044;SDS011;52192;52.002;5.956;2023-07-24T13:55:26;1.55;;;1.23;;
39044;SDS011;52192;52.002;5.956;2023-07-24T13:57:52;1.10;;;1.00;;
39044;SDS011;52192;52.002;5.956;2023-07-24T14:00:17;1.10;;;1.00;;
39044;SDS011;52192;52.002;5.956;2023-07-24T14:02:43;1.58;;;1.48;;
39044;SDS011;52192;52.002;5.956;2023-07-24T14:05:09;1.98;;;1.58;;
39044;SDS011;52192;52.002;5.956;2023-07-24T14:07:34;1.08;;;1.08;;
39044;SDS011;52192;52.002;5.956;2023-07-24T14:10:00;1.30;;;0.90;;
39044;SDS011;52192;52.002;5.956;2023-07-24T14:12:26;1.85;;;1.58;;
39044;SDS011;52192;52.002;5.956;2023-07-24T14:14:51;1.75;;;1.50;;
39044;SDS011;52192;52.002;5.956;2023-07-24T14:17:17;2.05;;;1.27;;
39044;SDS011;52192;52.002;5.956;2023-07-24T14:19:44;3.35;;;1.80;;
39044;SDS011;52192;52.002;5.956;2023-07-24T14:22:10;1.50;;;1.27;;
39044;SDS011;52192;52.002;5.956;2023-07-24T14:24:35;0.90;;;0.90;;
39044;SDS011;52192;52.002;5.956;2023-07-24T14:27:01;3.47;;;1.85;;
39044;SDS011;52192;52.002;5.956;2023-07-24T14:29:27;1.25;;;1.17;;
39044;SDS011;52192;52.002;5.956;2023-07-24T14:31:52;1.23;;;1.00;;
39044;SDS011;52192;52.002;5.956;2023-07-24T14:34:18;2.47;;;1.55;;
39044;SDS011;52192;52.002;5.956;2023-07-24T14:36:43;1.83;;;1.48;;
39044;SDS011;52192;52.002;5.956;2023-07-24T14:39:09;1.15;;;1.05;;
39044;SDS011;52192;52.002;5.956;2023-07-24T14:41:35;1.20;;;1.10;;
39044;SDS011;52192;52.002;5.956;2023-07-24T14:44:00;1.88;;;1.30;;
39044;SDS011;52192;52.002;5.956;2023-07-24T14:46:26;1.52;;;0.98;;
39044;SDS011;52192;52.002;5.956;2023-07-24T14:48:52;1.13;;;1.02;;